Big Pine Key, FL (33043)

6:24 AM EDT on August 27, 2016 (GMT -0400)
| | Change Station

Elev -9999 ft 0.00 °N, 0.00 °E | Updated

Partly Cloudy
Partly Cloudy
87 °F
Feels Like 100 °F
N
7
Wind Variable Wind from NE
Gusts mph

Today
High -- | Low -- °F
--% Chance of Precip.
Yesterday
High -- | Low -- °F
Precip. -- in
Pressure 29.87 in
Visibility 10.0 miles
Clouds Few 1600 ft
Scattered Clouds 12000 ft
Mostly Cloudy 25000 ft
Heat Index 100 °F
Dew Point 77 °F
Humidity 74%
Rainfall --
Snow Depth Not available.
7:04 AM 7:48 PM
Waning Crescent, 25% visible
SPECI KNQX 271006Z 05005KT 10SM FEW016 SCT120 BKN250 28/28 A2987 RMK AO2 OCNL LTGTIC DSNT SE CB DSNT SE T2 SET T02780278 $
Pressure 29.87 in
Visibility 10.0 miles
Clouds Few 1600 ft
Scattered Clouds 12000 ft
Mostly Cloudy 25000 ft
Heat Index 100 °F
Dew Point 77 °F
Humidity 74%
Rainfall --
Snow Depth Not available.
7:04 AM 7:48 PM
Waning Crescent, 25% visible
SPECI KNQX 271006Z 05005KT 10SM FEW016 SCT120 BKN250 28/28 A2987 RMK AO2 OCNL LTGTIC DSNT SE CB DSNT SE T2 SET T02780278 $

10-Day Weather Forecast

Almanac

Astronomy

Aug. 27, 2016 Rise Set
Actual Time
Civil Twilight
Nautical Twilight
Astronomical Twilight
Moon
Length of Visible Light
Length of Day
Tomorrow will be .
, % of the Moon is Illuminated

Today's Extremes

State Highs State Lows

Community

WunderPhotos

Upload Photos

1,935,321 photos uploaded!

WunderBlog® & News

Nearby

Air Quality

  Air Quality AQ Index Pollutant
Not available.

Snow Depth

Station Depth Elevation

Earthquake Activity

City Distance Mag. Time & Date
Minimum magnitude displayed is 2.5.

Coastal Water Temperatures

Place Temperature

Stations

Nearby Weather Stations

Station Location Temp. Windchill Dew Point Humidity Wind Precip. Elev Updated Type
                   

Watches & Warnings

There are currently no watches in effect.